createdAt,value
2022-12-23T00:02:42.722Z,55.80
2022-12-23T00:05:35.780Z,60.78
2022-12-23T00:08:23.801Z,63.05
2022-12-23T00:11:16.416Z,59.10
2022-12-23T00:14:22.149Z,61.85
2022-12-23T00:17:21.643Z,59.38
2022-12-23T00:20:10.823Z,65.35
2022-12-23T00:23:05.742Z,65.38
2022-12-23T00:25:51.812Z,62.03
2022-12-23T00:28:37.608Z,68.80
2022-12-23T00:31:23.772Z,68.05
2022-12-23T00:34:11.173Z,71.43
2022-12-23T00:36:57.006Z,67.93
2022-12-23T00:40:06.590Z,63.58
2022-12-23T00:42:56.115Z,61.42
2022-12-23T00:45:42.026Z,60.47
2022-12-23T00:48:46.369Z,62.33
2022-12-23T00:51:32.523Z,61.95
2022-12-23T00:54:18.692Z,66.53
2022-12-23T00:57:05.129Z,65.40
2022-12-23T00:59:51.129Z,68.95
2022-12-23T01:03:00.622Z,67.55
2022-12-23T01:05:46.605Z,69.28
2022-12-23T01:08:32.393Z,64.60
2022-12-23T01:11:18.330Z,64.75
2022-12-23T01:14:04.506Z,66.03
2022-12-23T01:16:50.851Z,69.15
2022-12-23T01:19:37.404Z,67.13
2022-12-23T01:22:23.728Z,64.47
2022-12-23T01:25:09.845Z,67.15
2022-12-23T01:27:56.110Z,63.92
2022-12-23T01:30:42.020Z,68.95
2022-12-23T01:33:27.979Z,69.45
2022-12-23T01:36:13.899Z,68.85
2022-12-23T01:38:59.614Z,69.15
2022-12-23T01:42:04.179Z,73.82
2022-12-23T01:45:03.553Z,67.38
2022-12-23T01:47:52.734Z,72.38
2022-12-23T01:50:45.480Z,69.90
2022-12-23T01:56:17.743Z,69.35
2022-12-23T01:59:09.045Z,66.57
2022-12-23T02:02:13.523Z,65.95
2022-12-23T02:05:00.292Z,66.53
2022-12-23T02:08:04.603Z,72.75
2022-12-23T02:11:15.549Z,68.63
2022-12-23T02:14:51.354Z,69.75
2022-12-23T02:18:09.430Z,83.60
2022-12-23T02:21:04.690Z,94.75
2022-12-23T02:23:56.581Z,88.50
2022-12-23T02:27:07.444Z,94.03
2022-12-23T02:30:19.350Z,99.60
2022-12-23T02:34:00.584Z,92.82
2022-12-23T02:36:49.228Z,101.97
2022-12-23T02:39:39.727Z,103.32
2022-12-23T02:42:45.547Z,94.03
2022-12-23T02:46:06.989Z,94.15
2022-12-23T02:48:53.160Z,92.50
2022-12-23T02:51:43.008Z,91.65
2022-12-23T02:54:36.158Z,81.85
2022-12-23T02:57:27.493Z,91.07
2022-12-23T03:00:15.345Z,84.55
2022-12-23T03:03:01.679Z,83.10
2022-12-23T03:05:48.930Z,87.80
2022-12-23T03:08:39.937Z,88.40
2022-12-23T03:11:40.400Z,101.65
2022-12-23T03:14:35.549Z,97.57
2022-12-23T03:17:43.454Z,92.28
2022-12-23T03:20:38.692Z,100.70
2022-12-23T03:24:03.380Z,101.60
2022-12-23T03:26:51.107Z,116.50
2022-12-23T03:29:43.561Z,99.15
2022-12-23T03:32:33.749Z,101.28
2022-12-23T03:35:23.078Z,101.78
2022-12-23T03:38:10.481Z,96.07
2022-12-23T03:41:00.186Z,97.90
2022-12-23T03:43:53.398Z,90.63
2022-12-23T03:46:43.041Z,91.75
2022-12-23T03:49:42.079Z,90.38
2022-12-23T03:52:32.850Z,87.97
2022-12-23T03:55:23.294Z,91.72
2022-12-23T03:58:28.717Z,93.75
2022-12-23T04:01:19.386Z,95.18
2022-12-23T04:04:16.786Z,95.13
2022-12-23T04:07:07.886Z,96.68
2022-12-23T04:09:54.590Z,95.68
2022-12-23T04:12:40.814Z,97.57
2022-12-23T04:15:27.436Z,88.68
2022-12-23T04:18:13.522Z,96.18
2022-12-23T04:20:59.578Z,96.90
2022-12-23T04:23:45.774Z,98.32
2022-12-23T04:26:31.715Z,97.55
2022-12-23T04:29:17.481Z,100.60
2022-12-23T04:32:03.311Z,101.45
2022-12-23T04:34:49.280Z,95.32
2022-12-23T04:37:35.097Z,92.25
2022-12-23T04:40:20.996Z,98.97
2022-12-23T04:43:06.851Z,92.40
2022-12-23T04:45:52.876Z,88.57
2022-12-23T04:48:39.113Z,92.80
2022-12-23T04:51:24.958Z,92.32
2022-12-23T04:54:10.992Z,96.00
2022-12-23T04:56:56.902Z,88.65
2022-12-23T04:59:42.610Z,93.32
2022-12-23T05:02:28.682Z,82.30
2022-12-23T05:05:14.431Z,91.10
2022-12-23T05:08:05.440Z,90.63
2022-12-23T05:10:51.161Z,82.07
2022-12-23T05:13:36.931Z,94.63
2022-12-23T05:16:22.783Z,87.43
2022-12-23T05:19:09.060Z,91.72
2022-12-23T05:21:54.906Z,90.40
2022-12-23T05:24:40.692Z,91.32
2022-12-23T05:27:26.606Z,89.85
2022-12-23T05:30:12.429Z,85.38
2022-12-23T05:32:58.453Z,85.43
2022-12-23T05:35:44.560Z,82.45
2022-12-23T05:38:30.813Z,85.57
2022-12-23T05:41:17.237Z,84.75
2022-12-23T05:44:03.148Z,87.40
2022-12-23T05:46:48.956Z,80.57
2022-12-23T05:49:34.767Z,91.50
2022-12-23T05:52:20.635Z,84.55
2022-12-23T05:55:07.074Z,81.35
2022-12-23T05:57:53.274Z,90.47
2022-12-23T06:00:39.326Z,92.47
2022-12-23T06:03:25.559Z,96.55
2022-12-23T06:06:11.758Z,103.43
2022-12-23T06:08:59.869Z,117.25
2022-12-23T06:11:46.289Z,132.18
2022-12-23T06:14:32.183Z,122.47
2022-12-23T06:17:18.018Z,120.40
2022-12-23T06:20:04.499Z,121.30
2022-12-23T06:22:50.741Z,121.22
2022-12-23T06:25:36.528Z,113.15
2022-12-23T06:28:22.546Z,114.93
2022-12-23T06:31:08.465Z,110.22
2022-12-23T06:33:54.329Z,95.03
2022-12-23T06:36:40.303Z,104.93
2022-12-23T06:39:26.414Z,95.10
2022-12-23T06:42:12.528Z,109.68
2022-12-23T06:44:58.452Z,97.70
2022-12-23T06:47:44.727Z,113.28
2022-12-23T06:50:30.850Z,107.35
2022-12-23T06:53:16.627Z,105.03
2022-12-23T06:56:03.686Z,108.40
2022-12-23T06:58:49.795Z,104.45
2022-12-23T07:01:35.915Z,92.97
2022-12-23T07:04:21.897Z,96.03
2022-12-23T07:07:07.871Z,90.95
2022-12-23T07:09:53.612Z,94.22
2022-12-23T07:12:39.606Z,87.88
2022-12-23T07:15:25.321Z,88.50
2022-12-23T07:18:11.177Z,87.35
2022-12-23T07:21:00.177Z,84.20
2022-12-23T07:23:46.789Z,80.25
2022-12-23T07:26:33.600Z,93.07
2022-12-23T07:29:19.400Z,87.70
2022-12-23T07:32:05.522Z,87.13
2022-12-23T07:34:51.377Z,79.25
2022-12-23T07:37:37.425Z,78.65
2022-12-23T07:40:24.029Z,79.75
2022-12-23T07:43:10.572Z,84.85
2022-12-23T07:46:00.224Z,77.38
2022-12-23T07:48:47.210Z,88.13
2022-12-23T07:51:33.081Z,80.15
2022-12-23T07:54:19.127Z,81.90
2022-12-23T07:57:04.951Z,83.50
2022-12-23T07:59:50.798Z,79.13
2022-12-23T08:02:36.767Z,80.45
2022-12-23T08:05:23.040Z,69.68
2022-12-23T08:08:08.829Z,70.78
2022-12-23T08:10:59.936Z,79.40
2022-12-23T08:13:46.300Z,84.20
2022-12-23T08:16:36.525Z,85.18
2022-12-23T08:19:25.250Z,95.53
2022-12-23T08:22:11.176Z,101.78
2022-12-23T08:24:56.960Z,95.28
2022-12-23T08:27:42.805Z,92.65
2022-12-23T08:30:28.943Z,90.15
2022-12-23T08:33:14.791Z,84.50
2022-12-23T08:36:01.079Z,86.43
2022-12-23T08:38:47.558Z,83.82
2022-12-23T08:41:37.732Z,100.57
2022-12-23T08:44:27.025Z,113.75
2022-12-23T08:47:13.047Z,109.53
2022-12-23T08:49:58.966Z,151.48
2022-12-23T08:52:44.984Z,150.02
2022-12-23T08:55:30.935Z,164.35
2022-12-23T08:58:16.867Z,149.50
2022-12-23T09:01:04.531Z,152.20
2022-12-23T09:03:51.229Z,140.27
2022-12-23T09:06:40.883Z,121.63
2022-12-23T09:09:26.843Z,124.78
2022-12-23T09:12:12.763Z,120.07
2022-12-23T09:14:58.750Z,105.95
2022-12-23T09:17:44.924Z,100.75
2022-12-23T09:20:30.795Z,108.35
2022-12-23T09:23:16.314Z,110.90
2022-12-23T09:26:04.745Z,101.28
2022-12-23T09:28:51.316Z,87.10
2022-12-23T09:31:38.077Z,93.53
2022-12-23T09:34:23.917Z,96.88
2022-12-23T09:37:10.025Z,81.65
2022-12-23T09:39:55.999Z,89.20
2022-12-23T09:42:52.955Z,87.57
2022-12-23T09:45:47.429Z,87.97
2022-12-23T09:48:38.541Z,85.85
2022-12-23T09:51:24.838Z,86.40
2022-12-23T09:54:19.979Z,85.53
2022-12-23T09:57:42.333Z,73.40
2022-12-23T10:00:32.385Z,69.30
2022-12-23T10:03:25.900Z,67.95
2022-12-23T10:06:20.387Z,62.80
2022-12-23T10:09:07.820Z,67.53
2022-12-23T10:11:53.715Z,71.03
2022-12-23T10:14:40.755Z,60.85
2022-12-23T10:17:34.968Z,51.28
2022-12-23T10:20:38.014Z,56.22
2022-12-23T10:23:37.796Z,45.47
2022-12-23T10:26:32.705Z,50.25
2022-12-23T10:29:21.233Z,46.42
2022-12-23T10:32:29.073Z,45.45
2022-12-23T10:35:18.218Z,46.75
2022-12-23T10:38:16.292Z,47.50
2022-12-23T10:41:34.663Z,51.13
2022-12-23T10:44:42.561Z,41.92
2022-12-23T10:47:48.070Z,43.05
2022-12-23T10:51:03.215Z,41.50
2022-12-23T10:53:53.766Z,39.90
2022-12-23T10:56:39.634Z,36.13
2022-12-23T10:59:31.700Z,35.33
2022-12-23T11:02:33.291Z,39.05
2022-12-23T11:05:24.233Z,31.25
2022-12-23T11:08:11.004Z,28.25
2022-12-23T11:10:57.180Z,27.95
2022-12-23T11:13:45.208Z,29.05
2022-12-23T11:16:30.965Z,28.80
2022-12-23T11:19:17.187Z,27.73
2022-12-23T11:22:02.846Z,31.25
2022-12-23T11:24:48.865Z,29.38
2022-12-23T11:27:35.101Z,27.83
2022-12-23T11:30:28.366Z,31.63
2022-12-23T11:33:25.449Z,33.28
2022-12-23T11:36:14.568Z,31.67
2022-12-23T11:39:28.296Z,29.17
2022-12-23T11:42:20.603Z,28.90
2022-12-23T11:45:07.427Z,28.10
2022-12-23T11:47:53.679Z,28.02
2022-12-23T11:50:40.563Z,28.90
2022-12-23T11:53:27.837Z,24.42
2022-12-23T11:56:15.278Z,30.65
2022-12-23T11:59:06.518Z,26.63
2022-12-23T12:01:53.934Z,29.83
2022-12-23T12:04:40.485Z,25.67
2022-12-23T12:07:27.189Z,20.83
2022-12-23T12:10:25.381Z,20.38
2022-12-23T12:13:33.445Z,16.75
2022-12-23T12:16:51.759Z,24.35
2022-12-23T12:19:46.943Z,22.50
2022-12-23T12:22:48.361Z,19.48
2022-12-23T12:25:43.292Z,19.30
2022-12-23T12:28:34.036Z,20.17
2022-12-23T12:31:40.024Z,21.48
2022-12-23T12:34:28.895Z,20.10
2022-12-23T12:37:17.606Z,21.75
2022-12-23T12:40:12.724Z,20.80
2022-12-23T12:43:22.565Z,29.73
2022-12-23T12:46:42.646Z,27.40
2022-12-23T12:49:57.591Z,35.20
2022-12-23T12:52:44.157Z,30.55
2022-12-23T12:55:32.903Z,24.50
2022-12-23T12:58:21.333Z,25.45
2022-12-23T13:01:39.892Z,21.63
2022-12-23T13:04:55.336Z,17.75
2022-12-23T13:08:05.702Z,22.05
2022-12-23T13:11:10.945Z,20.35
2022-12-23T13:14:26.361Z,16.52
2022-12-23T13:17:33.509Z,15.10
2022-12-23T13:21:10.497Z,17.98
2022-12-23T13:24:08.480Z,17.27
2022-12-23T13:27:00.648Z,14.95
2022-12-23T13:30:06.851Z,17.77
2022-12-23T13:33:05.226Z,22.67
2022-12-23T13:36:19.666Z,20.27
2022-12-23T13:39:27.645Z,17.75
2022-12-23T13:42:23.014Z,19.45
2022-12-23T13:45:15.343Z,16.15
2022-12-23T13:48:09.226Z,16.70
2022-12-23T13:51:41.404Z,24.23
2022-12-23T13:55:02.332Z,24.25
2022-12-23T13:57:48.005Z,22.83
2022-12-23T14:00:34.833Z,21.13
2022-12-23T14:03:24.691Z,32.10
2022-12-23T14:06:26.236Z,28.65
2022-12-23T14:09:14.974Z,30.98
2022-12-23T14:12:31.585Z,24.67
2022-12-23T14:15:26.103Z,22.60
2022-12-23T14:18:28.288Z,26.92
2022-12-23T14:21:43.586Z,33.03
2022-12-23T14:24:54.377Z,34.78
2022-12-23T14:28:03.696Z,38.30
2022-12-23T14:30:49.733Z,38.33
2022-12-23T14:33:38.066Z,32.85
2022-12-23T14:36:26.217Z,31.90
2022-12-23T14:39:12.403Z,26.65
2022-12-23T14:42:05.182Z,38.17
2022-12-23T14:44:52.785Z,35.58
2022-12-23T14:47:40.602Z,32.53
2022-12-23T14:50:33.075Z,49.22
2022-12-23T14:53:22.944Z,37.72
2022-12-23T14:56:14.933Z,35.10
2022-12-23T14:59:31.829Z,38.22
2022-12-23T15:02:31.642Z,41.10
2022-12-23T15:05:23.137Z,52.03
2022-12-23T15:08:37.193Z,59.35
2022-12-23T15:11:28.360Z,48.92
2022-12-23T15:14:31.055Z,40.72
2022-12-23T15:17:25.938Z,36.30
2022-12-23T15:20:24.221Z,34.78
2022-12-23T15:23:17.221Z,32.90
2022-12-23T15:26:03.672Z,39.90
2022-12-23T15:28:49.551Z,52.20
2022-12-23T15:31:39.675Z,41.75
2022-12-23T15:34:29.611Z,40.53
2022-12-23T15:37:24.606Z,45.72
2022-12-23T15:40:28.529Z,46.67
2022-12-23T15:43:20.506Z,38.63
2022-12-23T15:46:16.118Z,43.47
2022-12-23T15:49:02.181Z,46.58
2022-12-23T15:52:08.042Z,48.83
2022-12-23T15:54:57.477Z,46.05
2022-12-23T15:57:50.029Z,51.95
2022-12-23T16:00:41.407Z,49.80
2022-12-23T16:03:37.193Z,60.92
2022-12-23T16:06:25.612Z,60.95
2022-12-23T16:09:17.725Z,71.55
2022-12-23T16:12:26.248Z,64.50
2022-12-23T16:15:32.624Z,79.40
2022-12-23T16:18:22.847Z,62.88
2022-12-23T16:21:12.231Z,53.88
2022-12-23T16:23:59.362Z,37.72
2022-12-23T16:26:45.276Z,37.08
2022-12-23T16:29:33.628Z,35.08
2022-12-23T16:32:20.013Z,33.83
2022-12-23T16:35:12.577Z,50.83
2022-12-23T16:38:21.808Z,59.13
2022-12-23T16:41:08.338Z,53.47
2022-12-23T16:43:54.507Z,49.25
2022-12-23T16:46:44.050Z,57.03
2022-12-23T16:49:33.805Z,55.63
2022-12-23T16:52:20.082Z,71.57
2022-12-23T16:55:15.379Z,67.22
2022-12-23T16:58:01.347Z,58.55
2022-12-23T17:00:47.567Z,60.35
2022-12-23T17:03:33.688Z,67.63
2022-12-23T17:06:20.722Z,66.85
2022-12-23T17:09:08.050Z,70.18
2022-12-23T17:11:54.379Z,69.93
2022-12-23T17:14:40.558Z,75.72
2022-12-23T17:17:26.626Z,74.28
2022-12-23T17:20:13.149Z,70.25
2022-12-23T17:22:59.718Z,71.15
2022-12-23T17:25:45.883Z,81.20
2022-12-23T17:28:32.928Z,68.57
2022-12-23T17:31:26.703Z,66.90
2022-12-23T17:34:21.702Z,66.40
2022-12-23T17:37:17.671Z,50.40
2022-12-23T17:40:04.250Z,44.83
2022-12-23T17:42:50.706Z,45.75
2022-12-23T17:45:36.565Z,47.42
2022-12-23T17:48:28.022Z,51.90
2022-12-23T17:51:19.507Z,49.25
2022-12-23T17:54:06.568Z,54.03
2022-12-23T17:56:53.130Z,59.75
2022-12-23T17:59:39.189Z,78.32
2022-12-23T18:02:25.172Z,98.85
2022-12-23T18:05:24.478Z,95.10
2022-12-23T18:08:10.441Z,103.55
2022-12-23T18:10:57.564Z,100.93
2022-12-23T18:13:43.645Z,105.07
2022-12-23T18:16:30.304Z,111.82
2022-12-23T18:19:18.332Z,99.97
2022-12-23T18:22:04.309Z,94.60
2022-12-23T18:24:55.289Z,101.93
2022-12-23T18:27:45.367Z,106.53
2022-12-23T18:30:31.371Z,101.47
2022-12-23T18:33:17.254Z,95.60
2022-12-23T18:36:03.282Z,86.75
2022-12-23T18:38:49.658Z,107.28
2022-12-23T18:41:35.427Z,112.78
2022-12-23T18:44:21.635Z,97.80
2022-12-23T18:47:07.645Z,102.80
2022-12-23T18:49:53.602Z,102.47
2022-12-23T18:52:39.602Z,103.88
2022-12-23T18:55:26.054Z,107.10
2022-12-23T18:58:13.389Z,108.53
2022-12-23T19:00:59.473Z,113.47
2022-12-23T19:03:45.739Z,116.68
2022-12-23T19:06:31.798Z,110.82
2022-12-23T19:09:22.882Z,111.18
2022-12-23T19:12:09.351Z,93.75
2022-12-23T19:14:55.253Z,102.75
2022-12-23T19:17:41.436Z,89.43
2022-12-23T19:20:27.518Z,80.80
2022-12-23T19:23:13.987Z,102.00
2022-12-23T19:26:00.490Z,89.93
2022-12-23T19:28:48.696Z,96.05
2022-12-23T19:31:34.672Z,94.97
2022-12-23T19:34:20.788Z,97.70
2022-12-23T19:37:06.701Z,101.10
2022-12-23T19:39:52.919Z,136.55
2022-12-23T19:42:39.750Z,207.27
2022-12-23T19:45:25.944Z,208.07
2022-12-23T19:48:11.798Z,211.15
2022-12-23T19:50:59.614Z,211.48
2022-12-23T19:53:46.373Z,212.02
2022-12-23T19:56:32.647Z,206.57
2022-12-23T19:59:19.609Z,225.60
2022-12-23T20:02:06.547Z,220.38
2022-12-23T20:04:52.833Z,165.45
2022-12-23T20:07:38.977Z,120.10
2022-12-23T20:10:24.792Z,97.85
2022-12-23T20:13:10.638Z,96.55
2022-12-23T20:15:56.637Z,173.50
2022-12-23T20:18:42.875Z,159.02
2022-12-23T20:21:29.049Z,179.85
2022-12-23T20:24:15.597Z,221.55
2022-12-23T20:27:03.293Z,149.77
2022-12-23T20:29:52.462Z,113.30
2022-12-23T20:32:38.380Z,110.05
2022-12-23T20:35:24.797Z,92.65
2022-12-23T20:38:10.522Z,105.32
2022-12-23T20:40:56.711Z,81.82
2022-12-23T20:43:46.058Z,66.50
2022-12-23T20:46:38.814Z,63.45
2022-12-23T20:49:24.651Z,57.25
2022-12-23T20:52:10.679Z,63.42
2022-12-23T20:54:56.788Z,58.65
2022-12-23T20:57:44.680Z,65.63
2022-12-23T21:00:32.711Z,62.53
2022-12-23T21:03:18.651Z,74.05
2022-12-23T21:06:05.249Z,78.10
2022-12-23T21:08:52.422Z,83.30
2022-12-23T21:11:43.867Z,90.20
2022-12-23T21:14:29.799Z,81.25
2022-12-23T21:17:15.692Z,78.10
2022-12-23T21:20:07.497Z,71.25
2022-12-23T21:22:54.112Z,71.50
2022-12-23T21:25:39.866Z,68.80
2022-12-23T21:28:25.751Z,59.15
2022-12-23T21:31:12.370Z,70.57
2022-12-23T21:33:59.015Z,72.28
2022-12-23T21:36:44.917Z,72.28
2022-12-23T21:39:30.780Z,70.40
2022-12-23T21:42:16.951Z,77.18
2022-12-23T21:45:03.341Z,85.00
2022-12-23T21:47:49.674Z,79.97
2022-12-23T21:50:35.427Z,74.55
2022-12-23T21:53:21.751Z,79.20
2022-12-23T21:56:10.328Z,88.50
2022-12-23T21:58:58.094Z,100.20
2022-12-23T22:01:44.539Z,100.65
2022-12-23T22:04:30.686Z,101.22
2022-12-23T22:07:16.669Z,106.15
2022-12-23T22:10:02.953Z,96.85
2022-12-23T22:12:49.187Z,101.55
2022-12-23T22:15:34.859Z,101.82
2022-12-23T22:18:20.890Z,99.40
2022-12-23T22:21:18.126Z,117.20
2022-12-23T22:24:04.224Z,176.77
2022-12-23T22:26:50.318Z,144.65
2022-12-23T22:29:36.145Z,128.25
2022-12-23T22:32:22.129Z,110.97
2022-12-23T22:35:08.317Z,107.28
2022-12-23T22:37:54.591Z,106.63
2022-12-23T22:40:40.616Z,87.85
2022-12-23T22:43:26.399Z,81.68
2022-12-23T22:46:12.261Z,86.05
2022-12-23T22:48:59.005Z,84.88
2022-12-23T22:51:45.427Z,95.80
2022-12-23T22:54:31.606Z,99.30
2022-12-23T22:57:17.322Z,112.22
2022-12-23T23:00:11.623Z,102.72
2022-12-23T23:02:58.435Z,88.45
2022-12-23T23:05:44.408Z,80.45
2022-12-23T23:08:30.876Z,83.35
2022-12-23T23:11:17.034Z,89.90
2022-12-23T23:14:02.948Z,84.88
2022-12-23T23:16:48.856Z,75.70
2022-12-23T23:19:34.679Z,74.72
2022-12-23T23:22:22.326Z,78.65
2022-12-23T23:25:08.956Z,78.15
2022-12-23T23:27:54.937Z,87.32
2022-12-23T23:30:40.928Z,85.18
2022-12-23T23:33:26.852Z,85.28
2022-12-23T23:36:12.758Z,92.15
2022-12-23T23:38:58.622Z,102.88
2022-12-23T23:41:44.340Z,95.45
2022-12-23T23:44:30.303Z,104.95
2022-12-23T23:47:16.106Z,117.32
2022-12-23T23:50:02.393Z,101.43
2022-12-23T23:52:48.569Z,118.38
2022-12-23T23:55:34.497Z,98.70
2022-12-23T23:58:20.477Z,103.85
